Time;durP1;ratioP1;P1;durP2;ratioP2;P2;SDS_P1;SDS_P2;PMS_P1;PMS_P2;Temp;Humidity;BMP_temperature;BMP_pressure;BME280_temperature;BME280_humidity;BME280_pressure;Samples;Min_cycle;Max_cycle;Signal;HPM_P1;HPM_P2
2022/06/05 00:00:31;;;;;;;10.20;6.08;;;;;;;13.03;99.69;100230.00;1675867;84;21156;-69
2022/06/05 00:03:12;;;;;;;15.48;7.50;;;;;;;13.02;98.73;100230.91;1661253;84;21484;-70
2022/06/05 00:06:05;;;;;;;10.18;7.25;;;;;;;13.00;98.67;100235.44;1668671;84;21042;-70
2022/06/05 00:08:49;;;;;;;14.07;7.67;;;;;;;12.98;98.78;100230.69;1684907;84;21095;-70
2022/06/05 00:11:15;;;;;;;10.60;7.95;;;;;;;12.98;99.40;100221.44;1672271;85;21578;-69
2022/06/05 00:13:46;;;;;;;13.45;7.62;;;;;;;12.97;100.00;100221.88;1653171;85;21116;-70
2022/06/05 00:16:14;;;;;;;17.05;7.85;;;;;;;12.95;100.00;100218.91;1672904;84;21303;-70
2022/06/05 00:18:42;;;;;;;12.53;7.05;;;;;;;12.94;100.00;100217.20;1692890;84;21105;-70
2022/06/05 00:21:09;;;;;;;12.10;6.72;;;;;;;12.91;100.00;100218.68;1679960;84;21609;-70
2022/06/05 00:23:36;;;;;;;12.00;6.62;;;;;;;12.90;100.00;100224.88;1680543;84;21142;-70
2022/06/05 00:26:27;;;;;;;8.68;5.28;;;;;;;12.88;100.00;100237.30;1693857;84;21037;-70
2022/06/05 00:29:05;;;;;;;8.45;6.62;;;;;;;12.88;100.00;100237.30;1694562;84;22170;-70
2022/06/05 00:31:44;;;;;;;9.93;6.92;;;;;;;12.85;100.00;100230.84;1671872;84;21167;-70
2022/06/05 00:34:10;;;;;;;9.35;6.45;;;;;;;12.84;100.00;100225.14;1691175;84;22068;-70
2022/06/05 00:37:06;;;;;;;9.40;6.80;;;;;;;12.86;100.00;100210.07;1690943;84;21081;-69
2022/06/05 00:39:54;;;;;;;14.58;7.15;;;;;;;12.85;100.00;100209.22;1683746;83;21192;-70
2022/06/05 00:42:24;;;;;;;10.78;6.62;;;;;;;12.84;100.00;100199.59;1681101;84;21252;-70
2022/06/05 00:44:58;;;;;;;8.93;6.22;;;;;;;12.84;100.00;100196.06;1694769;84;21143;-72
2022/06/05 00:47:28;;;;;;;11.35;6.67;;;;;;;12.85;100.00;100192.52;1675838;84;21581;-71
2022/06/05 00:50:14;;;;;;;11.30;6.50;;;;;;;12.85;100.00;100188.08;1684597;84;21080;-70
2022/06/05 00:52:43;;;;;;;7.90;6.25;;;;;;;12.85;100.00;100184.11;1676141;84;22127;-71
2022/06/05 00:55:10;;;;;;;9.70;6.08;;;;;;;12.88;100.00;100187.08;1675924;84;21343;-70
2022/06/05 00:57:37;;;;;;;9.78;6.12;;;;;;;12.94;100.00;100181.52;1692704;84;21133;-71
2022/06/05 01:00:20;;;;;;;7.20;5.37;;;;;;;12.99;100.00;100183.48;1677966;84;21591;-71
2022/06/05 01:02:52;;;;;;;8.75;5.72;;;;;;;13.06;100.00;100186.23;1673228;84;21153;-71
2022/06/05 01:05:20;;;;;;;;;;;;;;;13.15;100.00;100183.16;1695181;84;22024;-70
2022/06/05 01:07:47;;;;;;;8.73;5.37;;;;;;;13.23;100.00;100177.06;1684567;84;22152;-71
2022/06/05 01:10:14;;;;;;;9.13;6.17;;;;;;;13.30;100.00;100182.10;1676843;84;21632;-71
2022/06/05 01:13:02;;;;;;;8.58;5.67;;;;;;;13.36;99.65;100179.14;1676704;84;21584;-71
2022/06/05 01:15:41;;;;;;;6.90;5.20;;;;;;;13.41;99.30;100170.52;1679415;84;21029;-70
2022/06/05 01:18:19;;;;;;;9.45;5.80;;;;;;;13.48;98.86;100161.38;1705021;83;21145;-70
2022/06/05 01:21:12;;;;;;;7.25;5.62;;;;;;;13.52;98.73;100168.21;1705723;83;22301;-70
2022/06/05 01:24:10;;;;;;;14.80;6.08;;;;;;;13.58;98.50;100168.40;1710430;83;21105;-70
2022/06/05 01:26:42;;;;;;;10.45;5.35;;;;;;;13.63;98.02;100172.98;1704420;83;21061;-72
2022/06/05 01:29:14;;;;;;;9.48;5.40;;;;;;;13.67;98.10;100174.56;1656980;85;21212;-70
2022/06/05 01:31:56;;;;;;;12.18;6.45;;;;;;;13.69;97.86;100171.81;1706867;83;21375;-70
2022/06/05 01:34:30;;;;;;;9.88;5.45;;;;;;;13.71;97.80;100162.02;1709770;83;21249;-71
2022/06/05 01:37:16;;;;;;;7.92;5.35;;;;;;;13.71;97.44;100162.02;1708786;83;21101;-72
2022/06/05 01:39:48;;;;;;;8.80;5.72;;;;;;;13.75;97.13;100166.23;1709657;83;21557;-70
2022/06/05 01:42:25;;;;;;;9.78;5.67;;;;;;;13.76;96.70;100166.64;1660430;85;21096;-71
2022/06/05 01:44:57;;;;;;;8.30;5.37;;;;;;;13.79;96.57;100167.33;1710433;83;21077;-71
2022/06/05 01:47:32;;;;;;;13.68;5.15;;;;;;;13.83;95.56;100172.86;1711473;83;21946;-69
2022/06/05 01:50:03;;;;;;;10.80;5.10;;;;;;;13.85;94.97;100174.12;1702423;83;21077;-71
2022/06/05 01:53:00;;;;;;;9.83;5.85;;;;;;;13.94;95.01;100182.93;1701742;83;21481;-70
2022/06/05 01:55:38;;;;;;;8.40;5.83;;;;;;;13.97;94.19;100178.80;1704616;83;21066;-70
2022/06/05 01:58:07;;;;;;;7.47;5.30;;;;;;;14.06;92.79;100181.45;1711150;83;21217;-71
2022/06/05 02:00:33;;;;;;;9.80;5.60;;;;;;;14.09;92.06;100185.73;1710809;83;21811;-71
2022/06/05 02:03:05;;;;;;;8.50;5.33;;;;;;;14.14;91.66;100182.38;1711018;83;21093;-71
2022/06/05 02:05:44;;;;;;;8.90;6.00;;;;;;;14.17;91.43;100183.53;1704533;83;21059;-70
2022/06/05 02:08:18;;;;;;;9.90;5.72;;;;;;;14.25;91.22;100184.02;1707624;83;21901;-70
2022/06/05 02:11:02;;;;;;;10.28;5.90;;;;;;;14.29;90.75;100184.25;1702876;83;21069;-69
2022/06/05 02:13:29;;;;;;;8.30;4.95;;;;;;;14.33;90.45;100184.45;1703963;84;21454;-69
2022/06/05 02:15:55;;;;;;;7.75;4.42;;;;;;;14.39;89.25;100182.82;1692335;84;21159;-70
2022/06/05 02:18:23;;;;;;;8.38;5.00;;;;;;;14.44;88.47;100179.45;1687188;84;21667;-71
2022/06/05 02:20:50;;;;;;;7.45;4.40;;;;;;;14.50;88.09;100178.77;1693109;84;21119;-69
2022/06/05 02:23:21;;;;;;;6.80;4.47;;;;;;;14.59;85.24;100172.55;1695779;84;21076;-70
2022/06/05 02:25:48;;;;;;;7.17;4.85;;;;;;;14.70;84.40;100173.31;1694592;84;21172;-70
2022/06/05 02:28:18;;;;;;;8.48;5.08;;;;;;;14.77;83.35;100172.04;1699781;84;21683;-71
2022/06/05 02:31:11;;;;;;;7.28;4.67;;;;;;;14.83;82.79;100170.36;1699707;84;21377;-69
2022/06/05 02:34:16;;;;;;;5.97;4.62;;;;;;;14.88;82.94;100168.79;1669036;84;21068;-70
2022/06/05 02:37:13;;;;;;;6.83;4.45;;;;;;;14.94;82.72;100164.48;1667990;84;21169;-69
2022/06/05 02:40:16;;;;;;;6.70;4.40;;;;;;;14.98;82.65;100161.21;1679909;84;21208;-69
2022/06/05 02:43:12;;;;;;;6.58;3.98;;;;;;;15.01;82.16;100157.91;1680324;84;21524;-69
2022/06/05 02:45:52;;;;;;;4.45;3.83;;;;;;;15.07;80.63;100154.08;1682347;84;21076;-69
2022/06/05 02:48:31;;;;;;;4.97;3.85;;;;;;;15.14;80.26;100148.81;1672764;84;21598;-72
2022/06/05 02:51:15;;;;;;;8.83;4.45;;;;;;;15.19;78.81;100150.73;1690721;84;21137;-69
2022/06/05 02:53:53;;;;;;;5.92;3.80;;;;;;;15.25;77.54;100144.21;1670250;84;22126;-70
2022/06/05 02:56:20;;;;;;;4.62;3.50;;;;;;;15.31;76.59;100140.75;1695370;83;21022;-70
2022/06/05 02:58:48;;;;;;;4.83;3.47;;;;;;;15.39;76.01;100142.11;1679458;84;21112;-70
2022/06/05 03:04:00;;;;;;;5.58;3.12;;;;;;;15.50;73.66;100137.05;1678378;84;21068;-71
2022/06/05 03:06:31;;;;;;;6.22;2.92;;;;;;;15.60;73.30;100140.90;1671264;84;22201;-70
2022/06/05 03:08:58;;;;;;;;;;;;;;;15.69;70.48;100137.71;1699221;83;21577;-70
2022/06/05 03:11:26;;;;;;;3.90;3.17;;;;;;;15.83;70.37;100132.11;1703710;83;20204;-72
2022/06/05 03:13:53;;;;;;;5.97;3.10;;;;;;;15.91;69.75;100131.16;1672814;84;21101;-70
2022/06/05 03:16:20;;;;;;;4.45;2.90;;;;;;;15.99;68.71;100128.92;1670680;84;21101;-71
2022/06/05 03:18:47;;;;;;;9.03;3.65;;;;;;;16.07;69.16;100129.30;1686194;84;21167;-71
2022/06/05 03:21:13;;;;;;;8.10;2.90;;;;;;;16.12;69.34;100125.89;1692549;84;21625;-71
2022/06/05 03:23:40;;;;;;;6.72;3.40;;;;;;;16.17;69.44;100124.28;1680617;84;21633;-71
2022/06/05 03:26:09;;;;;;;11.22;3.65;;;;;;;16.20;69.18;100127.26;1672159;84;21078;-71
2022/06/05 03:28:38;;;;;;;7.78;2.72;;;;;;;16.24;68.38;100128.75;1694020;84;21148;-71
2022/06/05 03:31:06;;;;;;;6.62;2.80;;;;;;;16.28;66.95;100122.31;1680000;83;21871;-71
2022/06/05 03:33:32;;;;;;;4.03;3.40;;;;;;;16.35;67.19;100127.15;1677806;84;21135;-71
2022/06/05 03:35:59;;;;;;;8.80;3.90;;;;;;;16.41;66.99;100117.97;1672098;84;21059;-71
2022/06/05 03:38:26;;;;;;;5.67;3.60;;;;;;;16.46;67.01;100123.84;1681439;84;21088;-69
2022/06/05 03:40:52;;;;;;;8.15;3.42;;;;;;;16.50;67.10;100122.72;1688680;84;21129;-71
2022/06/05 03:43:19;;;;;;;4.50;3.35;;;;;;;16.57;66.73;100123.20;1690141;84;21160;-71
2022/06/05 03:45:45;;;;;;;7.70;3.30;;;;;;;16.64;66.45;100122.34;1685187;84;21100;-71
2022/06/05 03:48:12;;;;;;;8.38;3.30;;;;;;;16.70;65.95;100117.95;1689097;84;21028;-70
2022/06/05 03:50:40;;;;;;;7.47;3.47;;;;;;;16.77;65.67;100124.13;1666048;84;21061;-70
2022/06/05 03:53:07;;;;;;;7.65;3.70;;;;;;;16.81;65.33;100123.48;1670639;84;21123;-70
2022/06/05 03:55:34;;;;;;;5.28;3.12;;;;;;;16.87;65.26;100117.78;1674279;84;21167;-70
2022/06/05 03:58:00;;;;;;;4.20;3.10;;;;;;;16.91;65.21;100121.97;1670826;84;21036;-71
2022/06/05 04:00:27;;;;;;;4.10;3.33;;;;;;;16.97;65.06;100120.70;1669560;84;21111;-69
2022/06/05 04:02:53;;;;;;;6.53;3.52;;;;;;;17.03;65.70;100122.98;1686344;84;21270;-70
2022/06/05 04:05:21;;;;;;;3.83;2.50;;;;;;;17.07;64.79;100126.29;1677449;84;21102;-71
2022/06/05 04:07:47;;;;;;;5.65;2.83;;;;;;;17.13;65.02;100131.23;1686313;84;21311;-72
2022/06/05 04:10:16;;;;;;;4.35;2.85;;;;;;;17.18;63.34;100134.44;1675352;84;21559;-71
2022/06/05 04:12:42;;;;;;;7.92;2.90;;;;;;;17.22;62.29;100135.95;1682363;84;21114;-71
2022/06/05 04:15:11;;;;;;;6.12;2.77;;;;;;;17.28;62.35;100139.56;1686796;84;21088;-71
2022/06/05 04:17:38;;;;;;;5.50;2.80;;;;;;;17.32;60.65;100127.77;1694092;84;21128;-70
2022/06/05 04:20:05;;;;;;;4.72;2.92;;;;;;;17.34;60.77;100137.81;1694158;84;21110;-70
2022/06/05 04:22:35;;;;;;;4.42;2.77;;;;;;;17.35;60.32;100139.53;1675505;84;21059;-70
2022/06/05 04:25:07;;;;;;;4.05;2.92;;;;;;;17.38;60.57;100132.67;1669341;84;21047;-69
2022/06/05 04:27:34;;;;;;;6.72;2.75;;;;;;;17.43;60.80;100133.70;1683769;84;21539;-70
2022/06/05 04:30:01;;;;;;;6.72;2.80;;;;;;;17.46;59.14;100128.65;1669845;84;21623;-71
2022/06/05 04:32:28;;;;;;;10.70;2.62;;;;;;;17.51;59.71;100129.23;1688942;84;21291;-69
2022/06/05 04:34:54;;;;;;;5.47;2.85;;;;;;;17.58;58.95;100135.37;1685248;84;21121;-71
2022/06/05 04:37:21;;;;;;;7.28;3.20;;;;;;;17.67;59.51;100131.25;1684500;84;21601;-72
2022/06/05 04:39:49;;;;;;;3.25;2.70;;;;;;;17.75;58.88;100134.23;1679642;84;21154;-70
2022/06/05 04:42:15;;;;;;;6.25;3.02;;;;;;;17.86;57.30;100134.05;1669053;84;21590;-71
2022/06/05 04:44:43;;;;;;;3.52;2.37;;;;;;;17.90;57.46;100135.06;1668985;84;21665;-71
2022/06/05 04:47:10;;;;;;;5.35;3.17;;;;;;;17.91;56.85;100135.91;1680116;84;21042;-70
2022/06/05 04:49:38;;;;;;;3.17;2.45;;;;;;;17.94;57.20;100141.02;1669244;84;21119;-69
2022/06/05 04:52:05;;;;;;;4.75;3.05;;;;;;;17.97;56.49;100151.49;1675812;84;21159;-71
2022/06/05 04:54:31;;;;;;;3.22;2.55;;;;;;;18.01;57.41;100154.30;1688738;84;21091;-70
2022/06/05 04:56:58;;;;;;;5.45;2.83;;;;;;;18.05;57.30;100154.48;1676888;84;22110;-70
2022/06/05 04:59:24;;;;;;;3.87;2.70;;;;;;;18.06;56.51;100152.66;1684266;84;21078;-70
2022/06/05 05:01:51;;;;;;;3.75;2.80;;;;;;;18.04;57.03;100163.44;1687088;84;21042;-71
2022/06/05 05:04:18;;;;;;;6.08;2.65;;;;;;;18.07;57.01;100161.05;1669411;84;21646;-72
2022/06/05 05:06:46;;;;;;;5.80;2.92;;;;;;;18.11;56.05;100168.73;1672924;84;21087;-70
2022/06/05 05:09:13;;;;;;;10.43;2.60;;;;;;;18.13;56.79;100180.14;1677245;84;21619;-72
2022/06/05 05:11:40;;;;;;;5.85;2.33;;;;;;;18.18;56.53;100184.67;1692380;83;21117;-72
2022/06/05 05:14:07;;;;;;;10.43;2.60;;;;;;;18.28;56.73;100193.37;1697355;83;21056;-71
2022/06/05 05:16:34;;;;;;;6.15;2.67;;;;;;;18.37;58.98;100204.75;1696476;83;21525;-71
2022/06/05 05:19:01;;;;;;;7.12;3.40;;;;;;;18.45;60.18;100203.27;1696600;83;21710;-72
2022/06/05 05:21:29;;;;;;;5.35;3.22;;;;;;;18.54;62.26;100211.13;1697160;83;21084;-71
2022/06/05 05:23:56;;;;;;;5.12;3.02;;;;;;;18.56;62.32;100206.51;1696334;83;21034;-71
2022/06/05 05:26:27;;;;;;;7.25;3.20;;;;;;;18.61;62.64;100207.06;1697220;83;21049;-71
2022/06/05 05:28:54;;;;;;;4.25;2.90;;;;;;;18.74;62.06;100199.53;1696640;83;21081;-71
2022/06/05 05:31:24;;;;;;;4.50;2.90;;;;;;;18.89;61.73;100201.17;1696909;83;21044;-72
2022/06/05 05:33:51;;;;;;;5.60;2.80;;;;;;;18.96;61.16;100210.45;1697789;83;21122;-71
2022/06/05 05:36:21;;;;;;;4.33;1.82;;;;;;;18.95;60.41;100203.88;1697055;83;21033;-70
2022/06/05 05:44:23;;;;;;;5.40;2.95;;;;;;;19.37;56.72;100237.34;1696938;83;21616;-71
2022/06/05 05:46:49;;;;;;;4.47;2.83;;;;;;;19.52;56.84;100236.70;1696904;83;21108;-71
2022/06/05 05:49:16;;;;;;;6.45;3.52;;;;;;;19.63;57.13;100233.26;1696838;84;21700;-73
2022/06/05 05:51:42;;;;;;;3.62;3.05;;;;;;;19.69;57.59;100230.14;1697077;83;21147;-70
2022/06/05 05:54:09;;;;;;;4.87;2.87;;;;;;;19.74;57.90;100222.67;1697541;83;21047;-70
2022/06/05 05:56:36;;;;;;;6.40;3.05;;;;;;;19.78;57.95;100220.11;1697029;83;21107;-71
2022/06/05 05:59:03;;;;;;;3.33;2.98;;;;;;;19.87;57.52;100220.77;1696952;83;21151;-72
2022/06/05 06:01:30;;;;;;;6.05;3.20;;;;;;;19.99;57.50;100212.80;1697128;83;21096;-71
2022/06/05 06:03:56;;;;;;;5.28;3.10;;;;;;;20.07;57.87;100218.44;1696584;83;21033;-70
2022/06/05 06:06:26;;;;;;;3.37;2.70;;;;;;;20.17;57.82;100217.25;1697376;84;21056;-70
2022/06/05 06:11:48;;;;;;;4.30;2.77;;;;;;;20.59;56.05;100208.27;1799747;79;22757;-72
2022/06/05 06:14:15;;;;;;;3.52;2.70;;;;;;;20.69;55.99;100211.95;1761949;81;20978;-71
2022/06/05 06:16:42;;;;;;;3.67;2.72;;;;;;;20.82;55.52;100213.16;1761881;81;21175;-71
2022/06/05 06:19:09;;;;;;;4.90;2.72;;;;;;;20.97;55.65;100213.30;1761911;81;20970;-72
2022/06/05 06:21:35;;;;;;;4.47;2.80;;;;;;;21.14;54.59;100212.83;1761879;81;21019;-71
2022/06/05 06:24:02;;;;;;;11.00;4.97;;;;;;;21.23;54.01;100206.35;1762424;81;22325;-72
2022/06/05 06:26:28;;;;;;;12.90;6.17;;;;;;;21.31;53.09;100211.46;1744824;81;21055;-71
2022/06/05 06:28:55;;;;;;;8.50;3.20;;;;;;;21.37;52.99;100210.97;1762264;81;21102;-71
2022/06/05 06:31:22;;;;;;;4.65;3.20;;;;;;;21.45;52.21;100197.48;1762223;81;21129;-71
2022/06/05 06:33:49;;;;;;;4.15;2.92;;;;;;;21.46;52.33;100190.63;1762293;81;21575;-72
2022/06/05 06:36:18;;;;;;;7.58;3.87;;;;;;;21.56;51.12;100188.92;1761990;81;21063;-72
2022/06/05 06:38:45;;;;;;;8.53;5.28;;;;;;;21.63;50.52;100191.10;1762245;81;21316;-71
2022/06/05 06:41:16;;;;;;;5.08;3.15;;;;;;;21.72;50.59;100191.19;1761920;81;21063;-71
2022/06/05 06:43:44;;;;;;;5.53;3.25;;;;;;;21.81;50.45;100197.63;1762382;81;21488;-72
2022/06/05 06:46:11;;;;;;;4.40;2.70;;;;;;;21.89;49.78;100201.84;1761937;81;21078;-71
2022/06/05 06:48:40;;;;;;;7.45;3.45;;;;;;;21.94;50.36;100208.16;1761823;81;21126;-72
2022/06/05 06:51:07;;;;;;;7.03;4.03;;;;;;;21.95;49.87;100205.36;1757069;81;21107;-71
2022/06/05 06:53:35;;;;;;;5.03;3.00;;;;;;;21.95;49.30;100212.06;1731777;82;21550;-71
2022/06/05 06:56:12;;;;;;;5.37;2.80;;;;;;;21.85;49.78;100208.42;1731545;82;21062;-71
2022/06/05 06:58:41;;;;;;;9.75;4.42;;;;;;;21.74;49.44;100216.04;1731838;82;21042;-71
2022/06/05 07:01:08;;;;;;;6.05;4.15;;;;;;;21.69;48.85;100220.06;1731675;82;21622;-71
2022/06/05 07:03:35;;;;;;;7.85;3.45;;;;;;;21.63;49.33;100224.60;1732044;82;21659;-70
2022/06/05 07:06:02;;;;;;;11.53;2.72;;;;;;;21.51;48.74;100221.95;1731737;82;21195;-69
2022/06/05 07:08:29;;;;;;;3.20;2.40;;;;;;;21.40;49.21;100228.66;1731616;82;21070;-71
2022/06/05 07:10:56;;;;;;;3.58;2.00;;;;;;;21.19;49.07;100231.67;1725944;82;21021;-71
2022/06/05 07:13:23;;;;;;;3.47;2.30;;;;;;;21.01;49.41;100228.16;1718527;83;21048;-71
2022/06/05 07:15:50;;;;;;;3.25;2.17;;;;;;;20.91;50.22;100233.85;1718556;83;21021;-70
2022/06/05 07:18:18;;;;;;;5.58;2.62;;;;;;;20.86;50.89;100231.54;1709943;83;21620;-71
2022/06/05 07:20:45;;;;;;;6.67;2.58;;;;;;;20.84;50.42;100231.30;1690121;84;21127;-71
2022/06/05 07:23:13;;;;;;;4.62;2.52;;;;;;;20.76;50.29;100236.41;1689369;84;21086;-71
2022/06/05 07:25:48;;;;;;;4.05;2.20;;;;;;;20.63;50.71;100233.33;1689204;83;21119;-71
2022/06/05 07:28:14;;;;;;;5.15;2.58;;;;;;;20.54;50.96;100232.67;1689046;84;21032;-71
2022/06/05 07:30:43;;;;;;;7.67;2.70;;;;;;;20.42;51.60;100237.64;1689324;84;21143;-71
2022/06/05 07:33:10;;;;;;;10.68;2.80;;;;;;;20.32;52.41;100237.00;1662319;84;21122;-71
2022/06/05 07:35:37;;;;;;;6.15;3.02;;;;;;;20.29;53.43;100229.22;1689460;84;21027;-72
2022/06/05 07:38:04;;;;;;;7.00;3.20;;;;;;;20.21;54.30;100220.91;1697810;83;21122;-71
2022/06/05 07:40:31;;;;;;;3.87;2.60;;;;;;;20.11;55.20;100225.27;1718371;83;21051;-69
2022/06/05 07:42:57;;;;;;;4.12;2.40;;;;;;;19.88;56.01;100226.99;1718027;83;21141;-71
2022/06/05 07:45:24;;;;;;;3.10;2.60;;;;;;;19.63;57.09;100227.42;1718003;83;21071;-71
2022/06/05 07:47:50;;;;;;;5.97;2.90;;;;;;;19.45;58.46;100222.94;1718167;83;22196;-70
2022/06/05 07:50:19;;;;;;;3.52;2.95;;;;;;;19.32;59.15;100222.11;1717943;83;21072;-72
2022/06/05 07:55:30;;;;;;;6.37;3.27;;;;;;;19.13;60.96;100219.91;1718253;83;21144;-72
2022/06/05 07:57:57;;;;;;;8.05;3.58;;;;;;;19.05;62.17;100216.95;1718107;83;21201;-71
2022/06/05 08:00:24;;;;;;;7.72;3.27;;;;;;;18.95;64.05;100218.55;1718059;83;21049;-74
2022/06/05 08:02:51;;;;;;;6.92;3.65;;;;;;;18.83;64.81;100225.61;1718204;83;21095;-73
2022/06/05 08:05:18;;;;;;;6.80;3.67;;;;;;;18.71;65.75;100223.77;1718290;83;21024;-72
2022/06/05 08:07:44;;;;;;;6.60;4.00;;;;;;;18.65;67.01;100231.21;1718605;83;21077;-71
2022/06/05 08:10:11;;;;;;;7.83;3.77;;;;;;;18.55;69.33;100234.16;1718575;82;21072;-72
2022/06/05 08:12:38;;;;;;;6.33;4.08;;;;;;;18.43;74.10;100232.33;1725830;83;21059;-72
2022/06/05 08:15:08;;;;;;;6.22;3.33;;;;;;;18.32;76.13;100237.54;1725647;83;21098;-73
2022/06/05 08:17:36;;;;;;;6.05;3.72;;;;;;;18.18;76.59;100240.64;1725912;82;21050;-72
2022/06/05 08:20:07;;;;;;;5.70;3.60;;;;;;;18.06;81.13;100241.48;1725995;82;21099;-71
2022/06/05 08:22:37;;;;;;;5.37;3.85;;;;;;;17.97;81.83;100235.42;1725810;83;21118;-71
2022/06/05 08:25:04;;;;;;;6.37;3.80;;;;;;;17.90;84.19;100227.43;1725924;82;21073;-70
2022/06/05 08:27:31;;;;;;;5.87;3.60;;;;;;;17.78;83.14;100227.28;1725532;82;21131;-70
2022/06/05 08:29:57;;;;;;;6.75;3.95;;;;;;;17.69;84.21;100233.20;1725709;82;21102;-72
2022/06/05 08:32:26;;;;;;;4.10;3.30;;;;;;;17.57;83.05;100226.84;1725582;83;22214;-71
2022/06/05 08:34:53;;;;;;;5.35;3.87;;;;;;;17.51;85.36;100230.41;1725511;83;21083;-71
2022/06/05 08:43:25;;;;;;;4.05;3.22;;;;;;;17.58;83.31;100228.56;1726095;83;21032;-71
2022/06/05 08:46:00;;;;;;;6.33;3.40;;;;;;;17.67;84.50;100231.12;1725633;83;21887;-70
2022/06/05 08:48:34;;;;;;;6.47;3.45;;;;;;;17.84;83.28;100219.86;1726010;83;21043;-71
2022/06/05 08:51:28;;;;;;;5.20;3.35;;;;;;;17.96;81.56;100219.05;1725709;81;21101;-71
2022/06/05 08:54:12;;;;;;;7.97;3.45;;;;;;;18.05;78.69;100217.58;1725810;82;21114;-71
2022/06/05 08:56:44;;;;;;;7.20;3.15;;;;;;;18.13;80.07;100220.12;1703564;82;21058;-72
2022/06/05 08:59:26;;;;;;;4.37;2.95;;;;;;;18.27;80.05;100221.86;1725357;82;21811;-70
2022/06/05 09:02:21;;;;;;;8.65;3.37;;;;;;;18.52;78.21;100222.38;1718555;82;21071;-72
2022/06/05 09:05:08;;;;;;;5.30;3.10;;;;;;;18.78;75.41;100225.08;1725727;82;21103;-71
2022/06/05 09:07:52;;;;;;;4.00;3.00;;;;;;;18.96;72.86;100229.61;1725587;83;21102;-70
2022/06/05 09:10:34;;;;;;;10.03;3.45;;;;;;;19.05;70.75;100224.96;1725595;82;21093;-70
2022/06/05 09:13:26;;;;;;;5.45;2.87;;;;;;;19.16;70.07;100229.52;1687493;84;21088;-70
2022/06/05 09:16:02;;;;;;;10.08;2.87;;;;;;;19.24;69.60;100223.16;1665204;84;21120;-69
2022/06/05 09:18:35;;;;;;;5.28;2.90;;;;;;;19.41;70.00;100224.11;1687982;84;21107;-72
2022/06/05 09:21:26;;;;;;;2.40;2.20;;;;;;;19.62;67.88;100223.52;1687743;84;21076;-72
2022/06/05 09:24:24;;;;;;;3.85;2.58;;;;;;;19.74;66.71;100224.47;1683819;85;21053;-71
2022/06/05 09:27:01;;;;;;;3.02;2.10;;;;;;;19.86;64.39;100229.77;1687663;85;21636;-72
2022/06/05 09:29:51;;;;;;;4.33;2.67;;;;;;;19.90;62.69;100229.91;1683956;85;21111;-70
2022/06/05 09:32:53;;;;;;;2.85;2.40;;;;;;;19.93;61.96;100226.16;1687899;85;28208;-72
2022/06/05 09:35:43;;;;;;;4.72;2.25;;;;;;;20.03;63.09;100226.31;1688045;84;21041;-71
2022/06/05 09:38:29;;;;;;;4.20;2.37;;;;;;;20.16;62.10;100230.27;1687963;84;21084;-71
2022/06/05 09:41:25;;;;;;;2.40;1.95;;;;;;;20.27;60.75;100224.47;1687845;84;22162;-72
2022/06/05 09:44:18;;;;;;;3.15;2.20;;;;;;;20.39;59.24;100223.17;1687571;85;21108;-71
2022/06/05 09:47:08;;;;;;;5.05;2.35;;;;;;;20.45;59.52;100222.68;1687643;85;21081;-72
2022/06/05 09:49:45;;;;;;;7.50;2.52;;;;;;;20.59;60.13;100221.65;1686721;85;21005;-72
2022/06/05 09:52:25;;;;;;;3.85;2.72;;;;;;;20.77;59.99;100226.06;1687556;84;21060;-71
2022/06/05 09:55:14;;;;;;;5.05;2.50;;;;;;;20.89;59.21;100229.11;1687453;85;21283;-71
2022/06/05 10:00:45;;;;;;;3.15;2.25;;;;;;;21.05;58.43;100231.42;1687852;85;21057;-72
2022/06/05 10:03:20;;;;;;;6.90;2.25;;;;;;;21.13;56.51;100226.33;1687728;85;21103;-71
2022/06/05 10:06:25;;;;;;;3.52;2.15;;;;;;;21.13;56.59;100229.85;1687940;84;21056;-72
2022/06/05 10:09:08;;;;;;;5.30;2.52;;;;;;;21.10;55.56;100224.75;1687640;85;21807;-71
2022/06/05 10:11:59;;;;;;;2.87;1.95;;;;;;;21.04;54.77;100226.56;1690151;82;21112;-71
2022/06/05 10:14:54;;;;;;;5.67;1.90;;;;;;;20.97;53.83;100232.05;1691253;84;21096;-71
2022/06/05 10:17:51;;;;;;;3.83;2.20;;;;;;;20.86;54.47;100226.67;1691308;84;21140;-73
2022/06/05 10:20:42;;;;;;;3.52;2.40;;;;;;;20.81;55.61;100224.86;1691396;84;21550;-71
2022/06/05 10:23:38;;;;;;;4.45;2.35;;;;;;;20.79;57.07;100223.63;1691673;84;21149;-71
2022/06/05 10:26:39;;;;;;;2.98;2.12;;;;;;;20.88;56.88;100228.75;1657733;86;21356;-69
2022/06/05 10:29:20;;;;;;;2.95;2.10;;;;;;;20.97;55.89;100230.70;1657955;86;21078;-70
2022/06/05 10:31:56;;;;;;;;;;;;;;;21.06;54.53;100224.63;1660583;86;21117;-71
2022/06/05 10:34:56;;;;;;;4.25;2.10;;;;;;;21.09;54.44;100222.19;1647101;87;20214;-70
2022/06/05 10:37:32;;;;;;;5.28;2.37;;;;;;;21.10;55.03;100222.08;1647220;87;21187;-71
2022/06/05 10:40:04;;;;;;;4.83;2.22;;;;;;;21.18;55.48;100221.95;1645059;87;21724;-71
2022/06/05 10:43:15;;;;;;;4.00;2.17;;;;;;;21.20;54.94;100221.34;1691396;84;21077;-72
2022/06/05 10:45:56;;;;;;;;;;;;;;;21.20;55.39;100226.69;1690754;84;21112;-71
2022/06/05 10:48:35;;;;;;;6.17;2.62;;;;;;;21.27;56.05;100225.22;1691330;84;20210;-71
2022/06/05 10:51:48;;;;;;;3.37;2.42;;;;;;;21.38;55.99;100228.73;1657882;86;21158;-71
2022/06/05 10:54:29;;;;;;;16.87;7.05;;;;;;;21.40;55.28;100226.44;1656551;86;21709;-71
2022/06/05 10:57:13;;;;;;;12.15;5.92;;;;;;;21.44;54.55;100223.42;1658005;86;21045;-71
2022/06/05 11:00:06;;;;;;;6.83;3.05;;;;;;;21.49;53.21;100219.87;1658007;86;21117;-73
2022/06/05 11:03:18;;;;;;;4.05;2.40;;;;;;;21.55;53.38;100227.39;1658056;86;21634;-71
2022/06/05 11:06:07;;;;;;;4.05;2.20;;;;;;;21.60;53.96;100226.17;1658152;86;21289;-72
2022/06/05 11:08:45;;;;;;;3.47;2.33;;;;;;;21.64;53.28;100228.48;1657280;86;21053;-71
2022/06/05 11:14:26;;;;;;;4.93;3.23;;;;;;;21.66;54.58;100226.52;1712912;83;21061;-72
2022/06/05 11:17:14;;;;;;;7.97;3.20;;;;;;;21.67;55.19;100222.01;1712563;82;21144;-71
2022/06/05 11:20:06;;;;;;;3.87;2.50;;;;;;;21.60;55.73;100218.12;1712806;83;21157;-71
2022/06/05 11:22:33;;;;;;;8.30;6.28;;;;;;;21.65;55.88;100221.28;1711498;82;21113;-71
2022/06/05 11:25:36;;;;;;;8.58;5.33;;;;;;;21.78;55.58;100221.98;1712879;83;21050;-69
2022/06/05 11:28:26;;;;;;;9.58;2.67;;;;;;;21.92;55.07;100221.69;1713089;83;21049;-71
2022/06/05 11:31:38;;;;;;;6.07;2.57;;;;;;;22.08;55.40;100219.07;1713229;83;21124;-72
2022/06/05 11:34:16;;;;;;;4.60;2.37;;;;;;;22.29;54.09;100224.02;1713067;83;22165;-71
2022/06/05 11:36:55;;;;;;;3.10;2.30;;;;;;;22.46;53.30;100222.58;1712887;82;21022;-71
2022/06/05 11:40:16;;;;;;;3.62;2.15;;;;;;;22.69;52.57;100224.63;1712970;83;21064;-70
2022/06/05 11:43:26;;;;;;;5.70;2.42;;;;;;;22.93;51.59;100222.12;1713247;82;21030;-71
2022/06/05 11:46:01;;;;;;;3.47;2.80;;;;;;;23.10;51.50;100220.67;1713119;83;21109;-70
2022/06/05 11:48:54;;;;;;;8.80;6.72;;;;;;;23.30;51.08;100229.66;1713443;83;21117;-73
2022/06/05 11:51:48;;;;;;;13.58;7.40;;;;;;;23.44;50.76;100222.55;1712870;83;21117;-71
2022/06/05 11:54:32;;;;;;;8.33;5.53;;;;;;;23.58;50.80;100222.66;1712934;82;21043;-71
2022/06/05 11:57:07;;;;;;;13.53;8.70;;;;;;;23.74;49.68;100219.44;1712541;82;21620;-71
2022/06/05 12:00:00;;;;;;;7.08;4.78;;;;;;;23.90;48.89;100219.76;1713213;83;21069;-71
2022/06/05 12:02:40;;;;;;;11.22;7.67;;;;;;;24.06;48.43;100227.27;1670309;82;22172;-72
2022/06/05 12:05:32;;;;;;;;;;;;;;;24.37;47.46;100229.33;1715555;82;21081;-71
2022/06/05 12:08:07;;;;;;;4.20;3.20;;;;;;;24.62;46.54;100231.09;1684789;82;20281;-71
2022/06/05 12:10:42;;;;;;;5.87;2.70;;;;;;;24.91;45.59;100236.39;1713030;83;21098;-72
2022/06/05 12:13:30;;;;;;;4.83;3.02;;;;;;;25.27;45.15;100233.37;1678943;84;21060;-72
2022/06/05 12:16:28;;;;;;;3.08;1.72;;;;;;;25.64;44.11;100228.41;1678629;85;21157;-72
2022/06/05 12:19:15;;;;;;;3.15;1.75;;;;;;;25.97;41.79;100227.42;1678472;85;21506;-71
2022/06/05 12:22:09;;;;;;;3.27;1.70;;;;;;;26.16;41.07;100220.53;1678360;85;21199;-70
2022/06/05 12:25:08;;;;;;;1.92;1.40;;;;;;;26.18;39.16;100222.21;1678046;83;21588;-70
2022/06/05 12:28:03;;;;;;;4.10;1.40;;;;;;;26.35;39.21;100218.66;1674808;85;21096;-74